sensor_id;sensor_type;location;lat;lon;timestamp;P1;durP1;ratioP1;P2;durP2;ratioP2
75071;SDS011;63651;55.728;38.022;2024-01-25T00:02:36;4.75;;;2.95;;
75071;SDS011;63651;55.728;38.022;2024-01-25T00:07:47;5.90;;;3.17;;
75071;SDS011;63651;55.728;38.022;2024-01-25T00:12:50;3.88;;;2.95;;
75071;SDS011;63651;55.728;38.022;2024-01-25T00:17:52;5.32;;;2.83;;
75071;SDS011;63651;55.728;38.022;2024-01-25T00:22:54;4.43;;;2.72;;
75071;SDS011;63651;55.728;38.022;2024-01-25T00:27:56;5.28;;;3.33;;
75071;SDS011;63651;55.728;38.022;2024-01-25T00:32:57;4.95;;;2.92;;
75071;SDS011;63651;55.728;38.022;2024-01-25T00:37:59;5.30;;;2.97;;
75071;SDS011;63651;55.728;38.022;2024-01-25T00:43:01;5.03;;;3.17;;
75071;SDS011;63651;55.728;38.022;2024-01-25T00:48:05;3.88;;;2.67;;
75071;SDS011;63651;55.728;38.022;2024-01-25T00:58:14;5.28;;;3.03;;
75071;SDS011;63651;55.728;38.022;2024-01-25T01:03:17;4.25;;;2.70;;
75071;SDS011;63651;55.728;38.022;2024-01-25T01:08:20;4.72;;;2.90;;
75071;SDS011;63651;55.728;38.022;2024-01-25T01:13:24;5.65;;;3.10;;
75071;SDS011;63651;55.728;38.022;2024-01-25T01:18:28;5.15;;;2.72;;
75071;SDS011;63651;55.728;38.022;2024-01-25T01:23:29;3.63;;;2.65;;
75071;SDS011;63651;55.728;38.022;2024-01-25T01:28:31;4.82;;;2.97;;
75071;SDS011;63651;55.728;38.022;2024-01-25T01:33:34;4.38;;;2.88;;
75071;SDS011;63651;55.728;38.022;2024-01-25T01:38:37;3.75;;;2.75;;
75071;SDS011;63651;55.728;38.022;2024-01-25T01:43:39;4.90;;;2.85;;
75071;SDS011;63651;55.728;38.022;2024-01-25T01:48:42;5.72;;;3.08;;
75071;SDS011;63651;55.728;38.022;2024-01-25T01:53:44;4.60;;;2.83;;
75071;SDS011;63651;55.728;38.022;2024-01-25T01:58:47;4.32;;;2.75;;
75071;SDS011;63651;55.728;38.022;2024-01-25T02:03:50;4.70;;;2.88;;
75071;SDS011;63651;55.728;38.022;2024-01-25T02:08:53;4.95;;;2.75;;
75071;SDS011;63651;55.728;38.022;2024-01-25T02:13:57;4.88;;;2.83;;
75071;SDS011;63651;55.728;38.022;2024-01-25T02:18:59;4.57;;;2.65;;
75071;SDS011;63651;55.728;38.022;2024-01-25T02:24:00;4.18;;;2.58;;
75071;SDS011;63651;55.728;38.022;2024-01-25T02:29:03;6.60;;;3.20;;
75071;SDS011;63651;55.728;38.022;2024-01-25T02:34:06;4.05;;;2.60;;
75071;SDS011;63651;55.728;38.022;2024-01-25T02:39:07;4.45;;;2.65;;
75071;SDS011;63651;55.728;38.022;2024-01-25T02:44:11;4.18;;;2.60;;
75071;SDS011;63651;55.728;38.022;2024-01-25T02:49:16;4.50;;;2.50;;
75071;SDS011;63651;55.728;38.022;2024-01-25T02:54:19;4.22;;;2.53;;
75071;SDS011;63651;55.728;38.022;2024-01-25T02:59:22;3.47;;;2.22;;
75071;SDS011;63651;55.728;38.022;2024-01-25T03:04:25;3.45;;;2.47;;
75071;SDS011;63651;55.728;38.022;2024-01-25T03:09:27;4.32;;;2.70;;
75071;SDS011;63651;55.728;38.022;2024-01-25T03:14:29;4.53;;;2.55;;
75071;SDS011;63651;55.728;38.022;2024-01-25T03:19:32;3.95;;;2.58;;
75071;SDS011;63651;55.728;38.022;2024-01-25T03:24:37;3.42;;;2.53;;
75071;SDS011;63651;55.728;38.022;2024-01-25T03:29:43;5.18;;;3.30;;
75071;SDS011;63651;55.728;38.022;2024-01-25T03:34:45;4.65;;;3.15;;
75071;SDS011;63651;55.728;38.022;2024-01-25T03:39:48;4.70;;;2.78;;
75071;SDS011;63651;55.728;38.022;2024-01-25T03:44:51;4.35;;;2.97;;
75071;SDS011;63651;55.728;38.022;2024-01-25T03:49:53;4.82;;;2.83;;
75071;SDS011;63651;55.728;38.022;2024-01-25T03:54:55;3.67;;;2.55;;
75071;SDS011;63651;55.728;38.022;2024-01-25T03:59:58;7.45;;;3.63;;
75071;SDS011;63651;55.728;38.022;2024-01-25T04:05:01;8.43;;;3.67;;
75071;SDS011;63651;55.728;38.022;2024-01-25T04:10:04;8.07;;;3.83;;
75071;SDS011;63651;55.728;38.022;2024-01-25T04:15:08;9.38;;;4.47;;
75071;SDS011;63651;55.728;38.022;2024-01-25T04:20:11;10.20;;;4.20;;
75071;SDS011;63651;55.728;38.022;2024-01-25T04:25:14;7.28;;;3.42;;
75071;SDS011;63651;55.728;38.022;2024-01-25T04:30:16;8.23;;;4.10;;
75071;SDS011;63651;55.728;38.022;2024-01-25T04:35:19;9.40;;;3.63;;
75071;SDS011;63651;55.728;38.022;2024-01-25T04:40:22;8.25;;;3.72;;
75071;SDS011;63651;55.728;38.022;2024-01-25T04:45:24;7.78;;;3.90;;
75071;SDS011;63651;55.728;38.022;2024-01-25T04:50:27;7.75;;;4.20;;
75071;SDS011;63651;55.728;38.022;2024-01-25T04:55:30;8.90;;;4.45;;
75071;SDS011;63651;55.728;38.022;2024-01-25T05:00:32;6.57;;;3.85;;
75071;SDS011;63651;55.728;38.022;2024-01-25T05:05:35;5.90;;;3.45;;
75071;SDS011;63651;55.728;38.022;2024-01-25T05:10:37;11.35;;;6.57;;
75071;SDS011;63651;55.728;38.022;2024-01-25T05:15:40;8.80;;;5.03;;
75071;SDS011;63651;55.728;38.022;2024-01-25T05:20:44;7.47;;;4.22;;
75071;SDS011;63651;55.728;38.022;2024-01-25T05:25:46;7.65;;;4.25;;
75071;SDS011;63651;55.728;38.022;2024-01-25T05:30:48;7.40;;;3.97;;
75071;SDS011;63651;55.728;38.022;2024-01-25T05:35:51;7.28;;;4.88;;
75071;SDS011;63651;55.728;38.022;2024-01-25T05:40:54;9.15;;;5.28;;
75071;SDS011;63651;55.728;38.022;2024-01-25T05:45:56;6.18;;;3.67;;
75071;SDS011;63651;55.728;38.022;2024-01-25T05:50:59;8.27;;;4.65;;
75071;SDS011;63651;55.728;38.022;2024-01-25T05:56:01;7.75;;;4.38;;
75071;SDS011;63651;55.728;38.022;2024-01-25T06:01:06;7.28;;;4.25;;
75071;SDS011;63651;55.728;38.022;2024-01-25T06:06:08;6.82;;;3.83;;
75071;SDS011;63651;55.728;38.022;2024-01-25T06:11:11;6.53;;;4.15;;
75071;SDS011;63651;55.728;38.022;2024-01-25T06:16:12;7.10;;;3.80;;
75071;SDS011;63651;55.728;38.022;2024-01-25T06:21:15;6.50;;;3.80;;
75071;SDS011;63651;55.728;38.022;2024-01-25T06:26:18;6.22;;;3.75;;
75071;SDS011;63651;55.728;38.022;2024-01-25T06:31:20;8.55;;;5.15;;
75071;SDS011;63651;55.728;38.022;2024-01-25T06:36:22;8.95;;;5.18;;
75071;SDS011;63651;55.728;38.022;2024-01-25T06:41:23;8.77;;;5.13;;
75071;SDS011;63651;55.728;38.022;2024-01-25T06:46:26;8.02;;;5.20;;
75071;SDS011;63651;55.728;38.022;2024-01-25T06:51:28;7.13;;;4.47;;
75071;SDS011;63651;55.728;38.022;2024-01-25T06:56:30;7.00;;;4.80;;
75071;SDS011;63651;55.728;38.022;2024-01-25T07:01:35;5.10;;;3.85;;
75071;SDS011;63651;55.728;38.022;2024-01-25T07:06:38;6.95;;;4.20;;
75071;SDS011;63651;55.728;38.022;2024-01-25T07:11:40;7.05;;;4.60;;
75071;SDS011;63651;55.728;38.022;2024-01-25T07:16:43;7.95;;;4.50;;
75071;SDS011;63651;55.728;38.022;2024-01-25T07:21:46;8.60;;;4.63;;
75071;SDS011;63651;55.728;38.022;2024-01-25T07:26:48;8.07;;;4.63;;
75071;SDS011;63651;55.728;38.022;2024-01-25T07:31:50;9.13;;;4.95;;
75071;SDS011;63651;55.728;38.022;2024-01-25T07:36:53;9.90;;;5.00;;
75071;SDS011;63651;55.728;38.022;2024-01-25T07:41:55;9.05;;;5.07;;
75071;SDS011;63651;55.728;38.022;2024-01-25T07:46:56;9.02;;;4.57;;
75071;SDS011;63651;55.728;38.022;2024-01-25T07:51:58;12.20;;;7.13;;
75071;SDS011;63651;55.728;38.022;2024-01-25T07:57:00;11.30;;;7.00;;
75071;SDS011;63651;55.728;38.022;2024-01-25T08:02:06;10.93;;;6.70;;
75071;SDS011;63651;55.728;38.022;2024-01-25T08:07:09;14.32;;;7.43;;
75071;SDS011;63651;55.728;38.022;2024-01-25T08:12:11;13.18;;;8.30;;
75071;SDS011;63651;55.728;38.022;2024-01-25T08:17:14;11.23;;;6.65;;
75071;SDS011;63651;55.728;38.022;2024-01-25T08:22:16;12.40;;;7.03;;
75071;SDS011;63651;55.728;38.022;2024-01-25T08:27:19;12.38;;;7.60;;
75071;SDS011;63651;55.728;38.022;2024-01-25T08:32:21;8.88;;;5.22;;
75071;SDS011;63651;55.728;38.022;2024-01-25T08:37:24;8.07;;;5.50;;
75071;SDS011;63651;55.728;38.022;2024-01-25T08:42:27;8.32;;;5.10;;
75071;SDS011;63651;55.728;38.022;2024-01-25T08:47:30;6.80;;;4.93;;
75071;SDS011;63651;55.728;38.022;2024-01-25T08:52:32;10.02;;;4.80;;
75071;SDS011;63651;55.728;38.022;2024-01-25T08:57:35;6.65;;;4.93;;
75071;SDS011;63651;55.728;38.022;2024-01-25T09:02:38;7.57;;;4.97;;
75071;SDS011;63651;55.728;38.022;2024-01-25T09:07:40;7.75;;;4.93;;
75071;SDS011;63651;55.728;38.022;2024-01-25T09:12:42;7.32;;;4.97;;
75071;SDS011;63651;55.728;38.022;2024-01-25T09:17:45;9.48;;;5.00;;
75071;SDS011;63651;55.728;38.022;2024-01-25T09:22:49;5.35;;;3.72;;
75071;SDS011;63651;55.728;38.022;2024-01-25T09:27:52;8.55;;;5.07;;
75071;SDS011;63651;55.728;38.022;2024-01-25T09:32:55;8.77;;;5.60;;
75071;SDS011;63651;55.728;38.022;2024-01-25T09:37:58;7.50;;;5.00;;
75071;SDS011;63651;55.728;38.022;2024-01-25T09:42:59;7.57;;;5.03;;
75071;SDS011;63651;55.728;38.022;2024-01-25T09:48:02;7.82;;;5.32;;
75071;SDS011;63651;55.728;38.022;2024-01-25T09:53:05;5.75;;;3.75;;
75071;SDS011;63651;55.728;38.022;2024-01-25T09:58:12;6.25;;;4.03;;
75071;SDS011;63651;55.728;38.022;2024-01-25T10:03:15;5.57;;;4.03;;
75071;SDS011;63651;55.728;38.022;2024-01-25T10:08:17;7.70;;;4.30;;
75071;SDS011;63651;55.728;38.022;2024-01-25T10:13:21;8.20;;;4.50;;
75071;SDS011;63651;55.728;38.022;2024-01-25T10:18:25;6.35;;;4.65;;
75071;SDS011;63651;55.728;38.022;2024-01-25T10:23:28;6.43;;;4.18;;
75071;SDS011;63651;55.728;38.022;2024-01-25T10:28:29;5.45;;;4.07;;
75071;SDS011;63651;55.728;38.022;2024-01-25T10:33:34;8.02;;;3.97;;
75071;SDS011;63651;55.728;38.022;2024-01-25T10:38:40;6.28;;;3.90;;
75071;SDS011;63651;55.728;38.022;2024-01-25T10:43:45;7.55;;;4.68;;
75071;SDS011;63651;55.728;38.022;2024-01-25T10:48:51;5.97;;;4.07;;
75071;SDS011;63651;55.728;38.022;2024-01-25T10:53:55;5.63;;;3.90;;
75071;SDS011;63651;55.728;38.022;2024-01-25T10:58:59;6.10;;;4.32;;
75071;SDS011;63651;55.728;38.022;2024-01-25T11:04:01;6.55;;;4.40;;
75071;SDS011;63651;55.728;38.022;2024-01-25T11:09:18;7.65;;;4.28;;
75071;SDS011;63651;55.728;38.022;2024-01-25T11:14:24;6.43;;;3.80;;
75071;SDS011;63651;55.728;38.022;2024-01-25T11:19:27;7.65;;;4.07;;
75071;SDS011;63651;55.728;38.022;2024-01-25T11:24:29;6.90;;;4.40;;
75071;SDS011;63651;55.728;38.022;2024-01-25T11:29:38;5.85;;;4.05;;
75071;SDS011;63651;55.728;38.022;2024-01-25T11:34:42;7.07;;;4.35;;
75071;SDS011;63651;55.728;38.022;2024-01-25T11:39:44;7.15;;;4.20;;
75071;SDS011;63651;55.728;38.022;2024-01-25T11:44:46;7.65;;;4.70;;
75071;SDS011;63651;55.728;38.022;2024-01-25T11:49:49;6.47;;;4.60;;
75071;SDS011;63651;55.728;38.022;2024-01-25T11:54:51;7.75;;;4.72;;
75071;SDS011;63651;55.728;38.022;2024-01-25T11:59:54;7.97;;;4.70;;
75071;SDS011;63651;55.728;38.022;2024-01-25T12:04:57;6.93;;;4.82;;
75071;SDS011;63651;55.728;38.022;2024-01-25T12:10:02;6.93;;;4.78;;
75071;SDS011;63651;55.728;38.022;2024-01-25T12:15:06;8.10;;;4.75;;
75071;SDS011;63651;55.728;38.022;2024-01-25T12:20:10;10.13;;;5.32;;
75071;SDS011;63651;55.728;38.022;2024-01-25T12:25:13;9.30;;;5.65;;
75071;SDS011;63651;55.728;38.022;2024-01-25T12:30:16;8.18;;;5.13;;
75071;SDS011;63651;55.728;38.022;2024-01-25T12:35:18;8.73;;;5.53;;
75071;SDS011;63651;55.728;38.022;2024-01-25T12:40:20;7.95;;;5.20;;
75071;SDS011;63651;55.728;38.022;2024-01-25T12:45:23;8.00;;;5.45;;
75071;SDS011;63651;55.728;38.022;2024-01-25T12:50:26;7.90;;;4.95;;
75071;SDS011;63651;55.728;38.022;2024-01-25T12:55:29;9.02;;;5.40;;
75071;SDS011;63651;55.728;38.022;2024-01-25T13:00:31;7.68;;;4.57;;
75071;SDS011;63651;55.728;38.022;2024-01-25T13:05:34;8.02;;;4.75;;
75071;SDS011;63651;55.728;38.022;2024-01-25T13:10:35;7.32;;;4.93;;
75071;SDS011;63651;55.728;38.022;2024-01-25T13:15:38;8.50;;;5.05;;
75071;SDS011;63651;55.728;38.022;2024-01-25T13:20:41;8.30;;;5.28;;
75071;SDS011;63651;55.728;38.022;2024-01-25T13:25:42;8.95;;;5.20;;
75071;SDS011;63651;55.728;38.022;2024-01-25T13:30:44;8.25;;;5.13;;
75071;SDS011;63651;55.728;38.022;2024-01-25T13:35:47;7.72;;;5.57;;
75071;SDS011;63651;55.728;38.022;2024-01-25T13:40:50;15.77;;;6.10;;
75071;SDS011;63651;55.728;38.022;2024-01-25T13:45:53;10.95;;;7.28;;
75071;SDS011;63651;55.728;38.022;2024-01-25T13:50:56;11.63;;;7.90;;
75071;SDS011;63651;55.728;38.022;2024-01-25T13:55:58;10.70;;;7.78;;
75071;SDS011;63651;55.728;38.022;2024-01-25T14:01:00;10.68;;;7.15;;
75071;SDS011;63651;55.728;38.022;2024-01-25T14:06:03;10.85;;;7.22;;
75071;SDS011;63651;55.728;38.022;2024-01-25T14:11:06;11.48;;;7.13;;
75071;SDS011;63651;55.728;38.022;2024-01-25T14:16:08;9.20;;;6.63;;
75071;SDS011;63651;55.728;38.022;2024-01-25T14:21:10;9.90;;;6.53;;
75071;SDS011;63651;55.728;38.022;2024-01-25T14:26:11;9.30;;;6.00;;
75071;SDS011;63651;55.728;38.022;2024-01-25T14:31:13;9.25;;;5.55;;
75071;SDS011;63651;55.728;38.022;2024-01-25T14:36:16;10.95;;;5.97;;
75071;SDS011;63651;55.728;38.022;2024-01-25T14:41:19;8.32;;;5.57;;
75071;SDS011;63651;55.728;38.022;2024-01-25T14:46:20;10.15;;;6.35;;
75071;SDS011;63651;55.728;38.022;2024-01-25T14:51:22;10.77;;;6.57;;
75071;SDS011;63651;55.728;38.022;2024-01-25T14:56:24;8.43;;;5.85;;
75071;SDS011;63651;55.728;38.022;2024-01-25T15:01:27;10.43;;;5.72;;
75071;SDS011;63651;55.728;38.022;2024-01-25T15:06:31;8.48;;;5.47;;
75071;SDS011;63651;55.728;38.022;2024-01-25T15:11:34;9.80;;;5.65;;
75071;SDS011;63651;55.728;38.022;2024-01-25T15:16:37;8.68;;;5.32;;
75071;SDS011;63651;55.728;38.022;2024-01-25T15:21:39;9.80;;;5.50;;
75071;SDS011;63651;55.728;38.022;2024-01-25T15:26:42;7.75;;;5.72;;
75071;SDS011;63651;55.728;38.022;2024-01-25T15:31:45;8.95;;;5.63;;
75071;SDS011;63651;55.728;38.022;2024-01-25T15:36:46;6.70;;;4.43;;
75071;SDS011;63651;55.728;38.022;2024-01-25T15:41:48;7.43;;;4.72;;
75071;SDS011;63651;55.728;38.022;2024-01-25T15:46:50;6.43;;;4.20;;
75071;SDS011;63651;55.728;38.022;2024-01-25T15:51:51;5.18;;;3.70;;
75071;SDS011;63651;55.728;38.022;2024-01-25T15:56:53;6.18;;;4.10;;
75071;SDS011;63651;55.728;38.022;2024-01-25T16:01:54;6.25;;;4.20;;
75071;SDS011;63651;55.728;38.022;2024-01-25T16:06:57;7.05;;;4.00;;
75071;SDS011;63651;55.728;38.022;2024-01-25T16:11:59;6.50;;;3.88;;
75071;SDS011;63651;55.728;38.022;2024-01-25T16:17:02;6.15;;;3.88;;
75071;SDS011;63651;55.728;38.022;2024-01-25T16:22:05;5.50;;;3.38;;
75071;SDS011;63651;55.728;38.022;2024-01-25T16:27:07;5.55;;;3.50;;
75071;SDS011;63651;55.728;38.022;2024-01-25T16:32:10;4.90;;;3.58;;
75071;SDS011;63651;55.728;38.022;2024-01-25T16:37:12;5.18;;;3.70;;
75071;SDS011;63651;55.728;38.022;2024-01-25T16:42:17;6.57;;;4.03;;
75071;SDS011;63651;55.728;38.022;2024-01-25T16:47:19;5.28;;;3.70;;
75071;SDS011;63651;55.728;38.022;2024-01-25T16:52:21;5.85;;;4.28;;
75071;SDS011;63651;55.728;38.022;2024-01-25T16:57:23;6.22;;;4.00;;
75071;SDS011;63651;55.728;38.022;2024-01-25T17:02:26;5.03;;;3.80;;
75071;SDS011;63651;55.728;38.022;2024-01-25T17:07:27;6.35;;;4.00;;
75071;SDS011;63651;55.728;38.022;2024-01-25T17:12:30;5.90;;;4.10;;
75071;SDS011;63651;55.728;38.022;2024-01-25T17:17:31;6.90;;;4.40;;
75071;SDS011;63651;55.728;38.022;2024-01-25T17:22:33;6.93;;;4.25;;
75071;SDS011;63651;55.728;38.022;2024-01-25T17:27:36;6.35;;;4.28;;
75071;SDS011;63651;55.728;38.022;2024-01-25T17:32:39;5.57;;;3.80;;
75071;SDS011;63651;55.728;38.022;2024-01-25T17:37:42;8.27;;;4.35;;
75071;SDS011;63651;55.728;38.022;2024-01-25T17:42:45;6.38;;;4.07;;
75071;SDS011;63651;55.728;38.022;2024-01-25T17:47:47;6.88;;;4.32;;
75071;SDS011;63651;55.728;38.022;2024-01-25T17:52:49;6.40;;;3.83;;
75071;SDS011;63651;55.728;38.022;2024-01-25T17:57:52;6.30;;;4.00;;
75071;SDS011;63651;55.728;38.022;2024-01-25T18:02:54;7.93;;;4.95;;
75071;SDS011;63651;55.728;38.022;2024-01-25T18:07:56;6.20;;;3.35;;
75071;SDS011;63651;55.728;38.022;2024-01-25T18:12:58;8.55;;;3.97;;
75071;SDS011;63651;55.728;38.022;2024-01-25T18:18:02;8.18;;;3.60;;
75071;SDS011;63651;55.728;38.022;2024-01-25T18:23:05;6.30;;;3.65;;
75071;SDS011;63651;55.728;38.022;2024-01-25T18:28:07;6.78;;;3.22;;
75071;SDS011;63651;55.728;38.022;2024-01-25T18:33:09;5.90;;;3.42;;
75071;SDS011;63651;55.728;38.022;2024-01-25T18:38:11;6.47;;;3.50;;
75071;SDS011;63651;55.728;38.022;2024-01-25T18:43:14;7.20;;;3.70;;
75071;SDS011;63651;55.728;38.022;2024-01-25T18:48:19;6.63;;;3.45;;
75071;SDS011;63651;55.728;38.022;2024-01-25T18:53:22;5.53;;;3.70;;
75071;SDS011;63651;55.728;38.022;2024-01-25T18:58:24;5.97;;;3.88;;
75071;SDS011;63651;55.728;38.022;2024-01-25T19:03:28;6.10;;;3.70;;
75071;SDS011;63651;55.728;38.022;2024-01-25T19:08:31;4.85;;;3.72;;
75071;SDS011;63651;55.728;38.022;2024-01-25T19:13:34;5.55;;;3.80;;
75071;SDS011;63651;55.728;38.022;2024-01-25T19:18:36;7.93;;;3.90;;
75071;SDS011;63651;55.728;38.022;2024-01-25T19:23:40;7.30;;;3.67;;
75071;SDS011;63651;55.728;38.022;2024-01-25T19:28:42;5.35;;;3.67;;
75071;SDS011;63651;55.728;38.022;2024-01-25T19:33:45;6.90;;;4.32;;
75071;SDS011;63651;55.728;38.022;2024-01-25T19:38:48;8.52;;;6.75;;
75071;SDS011;63651;55.728;38.022;2024-01-25T19:43:50;9.90;;;6.53;;
75071;SDS011;63651;55.728;38.022;2024-01-25T19:48:54;9.32;;;5.13;;
75071;SDS011;63651;55.728;38.022;2024-01-25T19:53:55;8.40;;;5.75;;
75071;SDS011;63651;55.728;38.022;2024-01-25T19:58:59;6.50;;;4.88;;
75071;SDS011;63651;55.728;38.022;2024-01-25T20:04:03;8.00;;;5.85;;
75071;SDS011;63651;55.728;38.022;2024-01-25T20:09:08;10.32;;;6.07;;
75071;SDS011;63651;55.728;38.022;2024-01-25T20:14:14;8.00;;;5.22;;
75071;SDS011;63651;55.728;38.022;2024-01-25T20:19:15;8.63;;;5.85;;
75071;SDS011;63651;55.728;38.022;2024-01-25T20:24:18;8.13;;;5.53;;
75071;SDS011;63651;55.728;38.022;2024-01-25T20:29:20;7.88;;;5.78;;
75071;SDS011;63651;55.728;38.022;2024-01-25T20:34:21;7.22;;;5.25;;
75071;SDS011;63651;55.728;38.022;2024-01-25T20:39:22;8.65;;;5.35;;
75071;SDS011;63651;55.728;38.022;2024-01-25T20:44:25;6.55;;;5.05;;
75071;SDS011;63651;55.728;38.022;2024-01-25T20:49:26;8.45;;;5.00;;
75071;SDS011;63651;55.728;38.022;2024-01-25T20:54:29;8.32;;;5.45;;
75071;SDS011;63651;55.728;38.022;2024-01-25T20:59:33;7.60;;;4.63;;
75071;SDS011;63651;55.728;38.022;2024-01-25T21:04:36;93.45;;;35.92;;
75071;SDS011;63651;55.728;38.022;2024-01-25T21:09:41;110.60;;;41.47;;
75071;SDS011;63651;55.728;38.022;2024-01-25T21:14:45;48.60;;;19.35;;
75071;SDS011;63651;55.728;38.022;2024-01-25T21:19:49;26.98;;;11.75;;
75071;SDS011;63651;55.728;38.022;2024-01-25T21:24:51;11.25;;;6.88;;
75071;SDS011;63651;55.728;38.022;2024-01-25T21:29:55;9.15;;;5.95;;
75071;SDS011;63651;55.728;38.022;2024-01-25T21:34:58;9.43;;;5.90;;
75071;SDS011;63651;55.728;38.022;2024-01-25T21:40:01;8.88;;;5.80;;
75071;SDS011;63651;55.728;38.022;2024-01-25T21:45:04;7.25;;;5.10;;
75071;SDS011;63651;55.728;38.022;2024-01-25T21:50:07;7.03;;;5.18;;
75071;SDS011;63651;55.728;38.022;2024-01-25T21:55:10;7.05;;;4.80;;
75071;SDS011;63651;55.728;38.022;2024-01-25T22:00:13;6.15;;;4.57;;
75071;SDS011;63651;55.728;38.022;2024-01-25T22:05:16;6.13;;;4.28;;
75071;SDS011;63651;55.728;38.022;2024-01-25T22:10:20;6.70;;;4.72;;
75071;SDS011;63651;55.728;38.022;2024-01-25T22:15:22;6.38;;;4.88;;
75071;SDS011;63651;55.728;38.022;2024-01-25T22:20:25;6.50;;;4.70;;
75071;SDS011;63651;55.728;38.022;2024-01-25T22:25:28;6.60;;;4.90;;
75071;SDS011;63651;55.728;38.022;2024-01-25T22:30:31;7.18;;;5.30;;
75071;SDS011;63651;55.728;38.022;2024-01-25T22:35:34;7.00;;;4.78;;
75071;SDS011;63651;55.728;38.022;2024-01-25T22:40:36;7.88;;;5.30;;
75071;SDS011;63651;55.728;38.022;2024-01-25T22:45:38;6.75;;;4.93;;
75071;SDS011;63651;55.728;38.022;2024-01-25T22:50:41;6.30;;;4.57;;
75071;SDS011;63651;55.728;38.022;2024-01-25T22:55:42;7.75;;;5.65;;
75071;SDS011;63651;55.728;38.022;2024-01-25T23:00:44;8.68;;;5.45;;
75071;SDS011;63651;55.728;38.022;2024-01-25T23:05:47;8.73;;;5.38;;
75071;SDS011;63651;55.728;38.022;2024-01-25T23:10:49;6.72;;;5.30;;
75071;SDS011;63651;55.728;38.022;2024-01-25T23:15:51;9.13;;;5.72;;
75071;SDS011;63651;55.728;38.022;2024-01-25T23:20:54;7.35;;;5.47;;
75071;SDS011;63651;55.728;38.022;2024-01-25T23:25:56;6.75;;;5.10;;
75071;SDS011;63651;55.728;38.022;2024-01-25T23:30:58;8.20;;;5.03;;
75071;SDS011;63651;55.728;38.022;2024-01-25T23:36:01;7.20;;;5.57;;
75071;SDS011;63651;55.728;38.022;2024-01-25T23:41:06;7.07;;;5.20;;
75071;SDS011;63651;55.728;38.022;2024-01-25T23:46:08;8.18;;;4.97;;
75071;SDS011;63651;55.728;38.022;2024-01-25T23:51:10;7.05;;;5.15;;
75071;SDS011;63651;55.728;38.022;2024-01-25T23:56:12;8.73;;;6.03;;
